sensor_id;sensor_type;location;lat;lon;timestamp;pressure;altitude;pressure_sealevel;temperature;humidity
64053;BME280;50299;49.524;8.536;2023-02-28T00:02:22;101518.44;;;-5.54;55.05
64053;BME280;50299;49.524;8.536;2023-02-28T00:04:49;101519.63;;;-5.57;54.43
64053;BME280;50299;49.524;8.536;2023-02-28T00:07:19;101518.50;;;-5.69;56.29
64053;BME280;50299;49.524;8.536;2023-02-28T00:09:45;101515.38;;;-5.94;56.89
64053;BME280;50299;49.524;8.536;2023-02-28T00:12:12;101517.44;;;-5.46;56.33
64053;BME280;50299;49.524;8.536;2023-02-28T00:14:38;101521.84;;;-5.39;59.34
64053;BME280;50299;49.524;8.536;2023-02-28T00:17:04;101511.63;;;-5.50;55.68
64053;BME280;50299;49.524;8.536;2023-02-28T00:19:31;101520.09;;;-5.53;57.36
64053;BME280;50299;49.524;8.536;2023-02-28T00:21:57;101521.88;;;-5.32;56.18
64053;BME280;50299;49.524;8.536;2023-02-28T00:24:24;101521.66;;;-5.37;57.39
64053;BME280;50299;49.524;8.536;2023-02-28T00:26:50;101514.75;;;-5.74;56.21
64053;BME280;50299;49.524;8.536;2023-02-28T00:29:16;101525.19;;;-5.86;56.36
64053;BME280;50299;49.524;8.536;2023-02-28T00:31:43;101522.66;;;-6.16;57.76
64053;BME280;50299;49.524;8.536;2023-02-28T00:34:09;101513.91;;;-6.18;58.20
64053;BME280;50299;49.524;8.536;2023-02-28T00:36:35;101517.94;;;-6.50;58.97
64053;BME280;50299;49.524;8.536;2023-02-28T00:39:02;101520.81;;;-6.30;58.52
64053;BME280;50299;49.524;8.536;2023-02-28T00:41:29;101514.25;;;-6.28;57.98
64053;BME280;50299;49.524;8.536;2023-02-28T00:43:55;101511.84;;;-6.01;58.00
64053;BME280;50299;49.524;8.536;2023-02-28T00:46:22;101512.44;;;-5.99;58.53
64053;BME280;50299;49.524;8.536;2023-02-28T00:48:48;101516.06;;;-6.13;58.13
64053;BME280;50299;49.524;8.536;2023-02-28T00:51:15;101516.84;;;-6.34;58.83
64053;BME280;50299;49.524;8.536;2023-02-28T00:53:41;101517.47;;;-6.17;60.15
64053;BME280;50299;49.524;8.536;2023-02-28T00:56:08;101520.22;;;-6.47;60.53
64053;BME280;50299;49.524;8.536;2023-02-28T00:58:34;101524.09;;;-6.35;59.53
64053;BME280;50299;49.524;8.536;2023-02-28T01:01:01;101528.50;;;-6.48;58.72
64053;BME280;50299;49.524;8.536;2023-02-28T01:03:27;101526.34;;;-6.74;60.49
64053;BME280;50299;49.524;8.536;2023-02-28T01:05:54;101519.09;;;-6.74;65.04
64053;BME280;50299;49.524;8.536;2023-02-28T01:08:21;101526.84;;;-6.49;61.14
64053;BME280;50299;49.524;8.536;2023-02-28T01:10:47;101519.31;;;-6.90;61.67
64053;BME280;50299;49.524;8.536;2023-02-28T01:13:14;101517.44;;;-6.75;61.49
64053;BME280;50299;49.524;8.536;2023-02-28T01:15:43;101524.59;;;-7.12;61.70
64053;BME280;50299;49.524;8.536;2023-02-28T01:18:12;101524.75;;;-6.69;62.18
64053;BME280;50299;49.524;8.536;2023-02-28T01:20:38;101519.09;;;-6.74;60.55
64053;BME280;50299;49.524;8.536;2023-02-28T01:23:05;101521.38;;;-7.07;62.82
64053;BME280;50299;49.524;8.536;2023-02-28T01:25:34;101511.88;;;-6.88;62.07
64053;BME280;50299;49.524;8.536;2023-02-28T01:28:01;101516.94;;;-6.64;61.20
64053;BME280;50299;49.524;8.536;2023-02-28T01:30:27;101520.69;;;-7.09;61.73
64053;BME280;50299;49.524;8.536;2023-02-28T01:32:54;101519.13;;;-7.04;62.26
64053;BME280;50299;49.524;8.536;2023-02-28T01:35:23;101504.03;;;-6.54;63.69
64053;BME280;50299;49.524;8.536;2023-02-28T01:37:49;101509.91;;;-6.80;61.75
64053;BME280;50299;49.524;8.536;2023-02-28T01:40:16;101516.34;;;-6.95;64.68
64053;BME280;50299;49.524;8.536;2023-02-28T01:42:42;101517.63;;;-6.77;62.23
64053;BME280;50299;49.524;8.536;2023-02-28T01:45:29;101519.50;;;-7.21;62.72
64053;BME280;50299;49.524;8.536;2023-02-28T01:48:01;101512.16;;;-6.83;65.64
64053;BME280;50299;49.524;8.536;2023-02-28T01:50:31;101513.28;;;-7.07;62.52
64053;BME280;50299;49.524;8.536;2023-02-28T01:53:02;101507.63;;;-6.97;63.53
64053;BME280;50299;49.524;8.536;2023-02-28T01:55:31;101517.66;;;-7.06;64.75
64053;BME280;50299;49.524;8.536;2023-02-28T01:58:01;101508.00;;;-6.49;64.13
64053;BME280;50299;49.524;8.536;2023-02-28T02:00:30;101503.34;;;-6.77;62.91
64053;BME280;50299;49.524;8.536;2023-02-28T02:02:59;101501.31;;;-6.90;64.31
64053;BME280;50299;49.524;8.536;2023-02-28T02:05:30;101498.94;;;-6.63;66.50
64053;BME280;50299;49.524;8.536;2023-02-28T02:08:02;101492.03;;;-6.51;63.63
64053;BME280;50299;49.524;8.536;2023-02-28T02:10:40;101496.22;;;-6.27;66.59
64053;BME280;50299;49.524;8.536;2023-02-28T02:13:25;101484.72;;;-6.79;62.83
64053;BME280;50299;49.524;8.536;2023-02-28T02:30:03;101479.81;;;-7.05;64.74
64053;BME280;50299;49.524;8.536;2023-02-28T02:32:36;101475.66;;;-6.56;64.17
64053;BME280;50299;49.524;8.536;2023-02-28T02:35:23;101479.81;;;-6.54;64.03
64053;BME280;50299;49.524;8.536;2023-02-28T02:37:57;101485.09;;;-6.24;62.73
64053;BME280;50299;49.524;8.536;2023-02-28T02:40:39;101486.50;;;-6.28;63.91
64053;BME280;50299;49.524;8.536;2023-02-28T02:43:15;101486.72;;;-5.80;75.15
64053;BME280;50299;49.524;8.536;2023-02-28T02:45:54;101485.19;;;-5.61;67.69
64053;BME280;50299;49.524;8.536;2023-02-28T02:48:25;101483.38;;;-5.82;62.31
64053;BME280;50299;49.524;8.536;2023-02-28T02:50:58;101479.56;;;-5.94;61.78
64053;BME280;50299;49.524;8.536;2023-02-28T02:53:36;101485.38;;;-6.55;62.56
64053;BME280;50299;49.524;8.536;2023-02-28T02:56:05;101491.66;;;-6.48;68.24
64053;BME280;50299;49.524;8.536;2023-02-28T02:58:36;101488.84;;;-6.40;63.13
64053;BME280;50299;49.524;8.536;2023-02-28T03:01:12;101483.72;;;-6.56;63.99
64053;BME280;50299;49.524;8.536;2023-02-28T03:03:41;101494.09;;;-6.53;63.79
64053;BME280;50299;49.524;8.536;2023-02-28T03:06:07;101488.81;;;-6.25;67.44
64053;BME280;50299;49.524;8.536;2023-02-28T03:08:36;101486.78;;;-7.10;63.68
64053;BME280;50299;49.524;8.536;2023-02-28T03:11:06;101490.38;;;-6.88;65.22
64053;BME280;50299;49.524;8.536;2023-02-28T03:19:34;101485.50;;;-7.44;65.96
64053;BME280;50299;49.524;8.536;2023-02-28T03:28:08;101469.94;;;-7.48;66.70
64053;BME280;50299;49.524;8.536;2023-02-28T03:33:44;101480.66;;;-7.34;65.75
64053;BME280;50299;49.524;8.536;2023-02-28T03:36:17;101480.31;;;-7.31;66.44
64053;BME280;50299;49.524;8.536;2023-02-28T03:38:53;101474.56;;;-7.42;66.38
64053;BME280;50299;49.524;8.536;2023-02-28T03:41:23;101477.31;;;-7.06;65.89
64053;BME280;50299;49.524;8.536;2023-02-28T03:44:47;101475.75;;;-7.60;66.61
64053;BME280;50299;49.524;8.536;2023-02-28T03:46:58;101478.06;;;-7.57;66.59
64053;BME280;50299;49.524;8.536;2023-02-28T03:49:31;101475.72;;;-7.75;67.12
64053;BME280;50299;49.524;8.536;2023-02-28T03:51:59;101471.69;;;-7.26;67.68
64053;BME280;50299;49.524;8.536;2023-02-28T03:54:30;101476.13;;;-7.18;65.58
64053;BME280;50299;49.524;8.536;2023-02-28T03:57:23;101474.59;;;-6.77;64.58
64053;BME280;50299;49.524;8.536;2023-02-28T03:59:59;101474.19;;;-6.37;73.51
64053;BME280;50299;49.524;8.536;2023-02-28T04:02:27;101470.84;;;-6.61;64.84
64053;BME280;50299;49.524;8.536;2023-02-28T04:04:53;101469.81;;;-6.60;63.94
64053;BME280;50299;49.524;8.536;2023-02-28T04:07:20;101476.09;;;-6.89;64.22
64053;BME280;50299;49.524;8.536;2023-02-28T04:09:47;101474.59;;;-6.77;66.55
64053;BME280;50299;49.524;8.536;2023-02-28T04:12:13;101476.94;;;-6.52;65.88
64053;BME280;50299;49.524;8.536;2023-02-28T04:14:39;101471.22;;;-7.44;65.60
64053;BME280;50299;49.524;8.536;2023-02-28T04:17:06;101479.94;;;-7.42;66.14
64053;BME280;50299;49.524;8.536;2023-02-28T04:19:33;101471.41;;;-7.61;67.19
64053;BME280;50299;49.524;8.536;2023-02-28T04:22:02;101474.72;;;-7.29;66.81
64053;BME280;50299;49.524;8.536;2023-02-28T04:24:29;101474.00;;;-6.72;65.33
64053;BME280;50299;49.524;8.536;2023-02-28T04:26:57;101478.53;;;-7.09;65.27
64053;BME280;50299;49.524;8.536;2023-02-28T04:29:29;101476.41;;;-7.43;65.91
64053;BME280;50299;49.524;8.536;2023-02-28T04:31:56;101478.53;;;-7.38;65.76
64053;BME280;50299;49.524;8.536;2023-02-28T04:34:31;101479.75;;;-7.56;66.12
64053;BME280;50299;49.524;8.536;2023-02-28T04:36:58;101480.69;;;-7.48;66.62
64053;BME280;50299;49.524;8.536;2023-02-28T04:39:39;101474.66;;;-7.36;66.92
64053;BME280;50299;49.524;8.536;2023-02-28T04:42:06;101478.47;;;-7.15;65.26
64053;BME280;50299;49.524;8.536;2023-02-28T04:44:32;101465.66;;;-6.62;67.82
64053;BME280;50299;49.524;8.536;2023-02-28T04:46:59;101469.63;;;-6.94;65.10
64053;BME280;50299;49.524;8.536;2023-02-28T04:49:25;101467.00;;;-6.88;64.47
64053;BME280;50299;49.524;8.536;2023-02-28T04:51:52;101468.56;;;-6.79;65.92
64053;BME280;50299;49.524;8.536;2023-02-28T04:54:19;101464.41;;;-6.81;66.71
64053;BME280;50299;49.524;8.536;2023-02-28T04:56:46;101468.69;;;-6.29;64.12
64053;BME280;50299;49.524;8.536;2023-02-28T04:59:21;101471.75;;;-6.90;63.59
64053;BME280;50299;49.524;8.536;2023-02-28T05:01:49;101472.34;;;-6.37;63.64
64053;BME280;50299;49.524;8.536;2023-02-28T05:04:15;101472.25;;;-6.43;64.76
64053;BME280;50299;49.524;8.536;2023-02-28T05:06:42;101472.72;;;-6.40;64.38
64053;BME280;50299;49.524;8.536;2023-02-28T05:09:09;101477.13;;;-6.90;64.22
64053;BME280;50299;49.524;8.536;2023-02-28T05:11:37;101479.38;;;-6.57;66.73
64053;BME280;50299;49.524;8.536;2023-02-28T05:14:09;101479.81;;;-7.05;64.61
64053;BME280;50299;49.524;8.536;2023-02-28T05:16:37;101479.59;;;-6.73;68.41
64053;BME280;50299;49.524;8.536;2023-02-28T05:19:03;101485.38;;;-7.21;64.97
64053;BME280;50299;49.524;8.536;2023-02-28T05:21:41;101482.81;;;-6.99;65.33
64053;BME280;50299;49.524;8.536;2023-02-28T05:24:11;101481.81;;;-6.77;64.75
64053;BME280;50299;49.524;8.536;2023-02-28T05:26:41;101488.72;;;-6.53;63.77
64053;BME280;50299;49.524;8.536;2023-02-28T05:29:08;101481.47;;;-6.53;63.93
64053;BME280;50299;49.524;8.536;2023-02-28T05:31:35;101484.19;;;-6.67;65.04
64053;BME280;50299;49.524;8.536;2023-02-28T05:34:02;101486.38;;;-6.20;65.68
64053;BME280;50299;49.524;8.536;2023-02-28T05:36:30;101475.78;;;-6.43;65.67
64053;BME280;50299;49.524;8.536;2023-02-28T05:38:57;101490.56;;;-6.17;63.47
64053;BME280;50299;49.524;8.536;2023-02-28T05:41:23;101482.53;;;-6.11;65.32
64053;BME280;50299;49.524;8.536;2023-02-28T05:43:50;101483.16;;;-6.52;63.63
64053;BME280;50299;49.524;8.536;2023-02-28T05:46:17;101488.53;;;-6.52;64.94
64053;BME280;50299;49.524;8.536;2023-02-28T05:48:47;101494.56;;;-6.49;63.88
64053;BME280;50299;49.524;8.536;2023-02-28T05:51:13;101494.44;;;-6.20;67.14
64053;BME280;50299;49.524;8.536;2023-02-28T05:53:40;101496.22;;;-6.48;66.90
64053;BME280;50299;49.524;8.536;2023-02-28T05:56:07;101493.75;;;-6.29;64.34
64053;BME280;50299;49.524;8.536;2023-02-28T05:58:33;101498.38;;;-6.01;65.47
64053;BME280;50299;49.524;8.536;2023-02-28T06:01:20;101492.63;;;-6.34;63.22
64053;BME280;50299;49.524;8.536;2023-02-28T06:03:47;101492.72;;;-6.28;64.46
64053;BME280;50299;49.524;8.536;2023-02-28T06:06:13;101484.44;;;-6.47;66.42
64053;BME280;50299;49.524;8.536;2023-02-28T06:08:39;101496.53;;;-6.58;63.77
64053;BME280;50299;49.524;8.536;2023-02-28T06:11:06;101499.03;;;-6.57;64.40
64053;BME280;50299;49.524;8.536;2023-02-28T06:13:33;101495.31;;;-6.34;64.27
64053;BME280;50299;49.524;8.536;2023-02-28T06:16:00;101500.59;;;-6.26;66.70
64053;BME280;50299;49.524;8.536;2023-02-28T06:18:27;101504.75;;;-6.96;64.07
64053;BME280;50299;49.524;8.536;2023-02-28T06:20:54;101505.66;;;-6.74;65.18
64053;BME280;50299;49.524;8.536;2023-02-28T06:23:22;101505.31;;;-6.49;63.40
64053;BME280;50299;49.524;8.536;2023-02-28T06:25:48;101506.03;;;-6.41;68.50
64053;BME280;50299;49.524;8.536;2023-02-28T06:28:16;101515.41;;;-6.88;63.59
64053;BME280;50299;49.524;8.536;2023-02-28T06:30:42;101521.44;;;-6.86;66.33
64053;BME280;50299;49.524;8.536;2023-02-28T06:33:12;101518.75;;;-6.71;64.36
64053;BME280;50299;49.524;8.536;2023-02-28T06:35:38;101526.19;;;-7.03;65.45
64053;BME280;50299;49.524;8.536;2023-02-28T06:38:05;101519.34;;;-6.54;65.75
64053;BME280;50299;49.524;8.536;2023-02-28T06:40:31;101524.03;;;-6.78;64.52
64053;BME280;50299;49.524;8.536;2023-02-28T06:43:01;101528.22;;;-7.19;63.90
64053;BME280;50299;49.524;8.536;2023-02-28T06:45:27;101528.84;;;-6.73;63.59
64053;BME280;50299;49.524;8.536;2023-02-28T06:47:54;101524.28;;;-6.72;66.03
64053;BME280;50299;49.524;8.536;2023-02-28T06:50:21;101528.88;;;-6.52;66.13
64053;BME280;50299;49.524;8.536;2023-02-28T06:52:47;101525.78;;;-6.12;65.36
64053;BME280;50299;49.524;8.536;2023-02-28T06:55:14;101530.97;;;-5.89;60.74
64053;BME280;50299;49.524;8.536;2023-02-28T06:57:40;101531.25;;;-5.84;61.70
64053;BME280;50299;49.524;8.536;2023-02-28T07:00:08;101535.06;;;-5.93;64.26
64053;BME280;50299;49.524;8.536;2023-02-28T07:02:36;101534.50;;;-5.39;61.90
64053;BME280;50299;49.524;8.536;2023-02-28T07:05:05;101532.09;;;-5.56;60.71
64053;BME280;50299;49.524;8.536;2023-02-28T07:07:33;101538.16;;;-5.75;61.27
64053;BME280;50299;49.524;8.536;2023-02-28T07:10:02;101539.63;;;-5.72;61.09
64053;BME280;50299;49.524;8.536;2023-02-28T07:12:28;101536.22;;;-5.60;61.95
64053;BME280;50299;49.524;8.536;2023-02-28T07:14:54;101545.06;;;-5.66;61.19
64053;BME280;50299;49.524;8.536;2023-02-28T07:17:24;101550.09;;;-5.00;65.46
64053;BME280;50299;49.524;8.536;2023-02-28T07:19:51;101547.59;;;-4.60;61.15
64053;BME280;50299;49.524;8.536;2023-02-28T07:22:17;101548.91;;;-5.54;59.15
64053;BME280;50299;49.524;8.536;2023-02-28T07:24:44;101558.41;;;-5.79;62.45
64053;BME280;50299;49.524;8.536;2023-02-28T07:27:10;101561.81;;;-4.80;60.63
64053;BME280;50299;49.524;8.536;2023-02-28T07:29:38;101561.00;;;-4.26;59.14
64053;BME280;50299;49.524;8.536;2023-02-28T07:32:04;101558.31;;;-4.32;58.18
64053;BME280;50299;49.524;8.536;2023-02-28T07:34:31;101562.13;;;-3.80;55.50
64053;BME280;50299;49.524;8.536;2023-02-28T07:36:57;101563.63;;;-3.44;54.64
64053;BME280;50299;49.524;8.536;2023-02-28T07:39:24;101555.06;;;-3.88;55.83
64053;BME280;50299;49.524;8.536;2023-02-28T07:41:51;101553.00;;;-3.86;55.96
64053;BME280;50299;49.524;8.536;2023-02-28T07:44:17;101560.91;;;-3.78;56.61
64053;BME280;50299;49.524;8.536;2023-02-28T07:46:47;101557.16;;;-3.90;56.60
64053;BME280;50299;49.524;8.536;2023-02-28T07:49:14;101563.69;;;-4.80;54.62
64053;BME280;50299;49.524;8.536;2023-02-28T07:51:40;101550.81;;;-4.30;54.98
64053;BME280;50299;49.524;8.536;2023-02-28T07:54:07;101555.91;;;-3.94;55.07
64053;BME280;50299;49.524;8.536;2023-02-28T07:56:34;101558.97;;;-2.97;53.58
64053;BME280;50299;49.524;8.536;2023-02-28T07:59:00;101570.06;;;-3.32;52.85
64053;BME280;50299;49.524;8.536;2023-02-28T08:01:27;101565.69;;;-3.86;54.20
64053;BME280;50299;49.524;8.536;2023-02-28T08:03:54;101568.63;;;-3.41;55.89
64053;BME280;50299;49.524;8.536;2023-02-28T08:06:24;101568.78;;;-3.10;52.59
64053;BME280;50299;49.524;8.536;2023-02-28T08:08:52;101580.28;;;-4.35;53.85
64053;BME280;50299;49.524;8.536;2023-02-28T08:11:19;101561.72;;;-3.90;54.35
64053;BME280;50299;49.524;8.536;2023-02-28T08:13:46;101571.94;;;-3.39;53.12
64053;BME280;50299;49.524;8.536;2023-02-28T08:16:13;101561.47;;;-4.15;53.73
64053;BME280;50299;49.524;8.536;2023-02-28T08:18:43;101566.22;;;-4.17;55.46
64053;BME280;50299;49.524;8.536;2023-02-28T08:21:10;101559.47;;;-3.34;57.34
64053;BME280;50299;49.524;8.536;2023-02-28T08:23:37;101565.06;;;-3.62;53.80
64053;BME280;50299;49.524;8.536;2023-02-28T08:26:03;101554.06;;;-3.40;52.91
64053;BME280;50299;49.524;8.536;2023-02-28T08:28:30;101563.38;;;-3.10;52.78
64053;BME280;50299;49.524;8.536;2023-02-28T08:30:57;101556.66;;;-2.87;56.90
64053;BME280;50299;49.524;8.536;2023-02-28T08:33:25;101561.16;;;-2.55;51.18
64053;BME280;50299;49.524;8.536;2023-02-28T08:35:54;101558.72;;;-2.31;50.66
64053;BME280;50299;49.524;8.536;2023-02-28T08:38:21;101558.81;;;-3.42;52.17
64053;BME280;50299;49.524;8.536;2023-02-28T08:40:48;101548.97;;;-4.16;51.91
64053;BME280;50299;49.524;8.536;2023-02-28T08:43:14;101565.06;;;-3.55;52.23
64053;BME280;50299;49.524;8.536;2023-02-28T08:45:41;101554.16;;;-4.28;51.46
64053;BME280;50299;49.524;8.536;2023-02-28T08:48:08;101558.41;;;-3.66;53.38
64053;BME280;50299;49.524;8.536;2023-02-28T08:50:34;101564.16;;;-2.76;52.04
64053;BME280;50299;49.524;8.536;2023-02-28T08:53:00;101560.84;;;-2.91;49.00
64053;BME280;50299;49.524;8.536;2023-02-28T08:55:27;101550.28;;;-3.19;50.46
64053;BME280;50299;49.524;8.536;2023-02-28T08:57:54;101561.34;;;-3.41;50.48
64053;BME280;50299;49.524;8.536;2023-02-28T09:00:21;101561.31;;;-2.49;49.54
64053;BME280;50299;49.524;8.536;2023-02-28T09:02:52;101569.81;;;-2.39;47.46
64053;BME280;50299;49.524;8.536;2023-02-28T09:05:18;101549.09;;;-2.59;49.68
64053;BME280;50299;49.524;8.536;2023-02-28T09:07:47;101557.09;;;-1.94;50.66
64053;BME280;50299;49.524;8.536;2023-02-28T09:10:14;101553.34;;;-1.68;46.06
64053;BME280;50299;49.524;8.536;2023-02-28T09:12:42;101558.94;;;-1.38;45.68
64053;BME280;50299;49.524;8.536;2023-02-28T09:15:12;101559.28;;;-1.03;45.91
64053;BME280;50299;49.524;8.536;2023-02-28T09:17:41;101563.88;;;-2.16;44.95
64053;BME280;50299;49.524;8.536;2023-02-28T09:20:11;101550.25;;;-1.46;47.67
64053;BME280;50299;49.524;8.536;2023-02-28T09:22:37;101551.13;;;-1.28;46.69
64053;BME280;50299;49.524;8.536;2023-02-28T09:25:04;101552.00;;;-1.34;45.74
64053;BME280;50299;49.524;8.536;2023-02-28T09:27:30;101545.41;;;-0.94;43.85
64053;BME280;50299;49.524;8.536;2023-02-28T09:29:57;101557.53;;;-0.97;44.66
64053;BME280;50299;49.524;8.536;2023-02-28T09:32:23;101551.72;;;-0.64;44.52
64053;BME280;50299;49.524;8.536;2023-02-28T09:34:50;101556.78;;;-0.86;43.63
64053;BME280;50299;49.524;8.536;2023-02-28T09:37:16;101566.84;;;-2.83;45.45
64053;BME280;50299;49.524;8.536;2023-02-28T09:39:42;101555.00;;;-2.37;47.84
64053;BME280;50299;49.524;8.536;2023-02-28T09:42:21;101546.81;;;-1.60;45.34
64053;BME280;50299;49.524;8.536;2023-02-28T09:44:50;101555.72;;;-0.85;45.69
64053;BME280;50299;49.524;8.536;2023-02-28T09:47:39;101557.25;;;-0.89;43.53
64053;BME280;50299;49.524;8.536;2023-02-28T09:50:20;101552.31;;;-0.43;42.41
64053;BME280;50299;49.524;8.536;2023-02-28T09:52:50;101551.66;;;0.03;43.74
64053;BME280;50299;49.524;8.536;2023-02-28T09:55:20;101541.38;;;-0.55;41.36
64053;BME280;50299;49.524;8.536;2023-02-28T09:57:50;101545.50;;;-1.51;48.15
64053;BME280;50299;49.524;8.536;2023-02-28T10:05:52;101538.06;;;-1.37;47.54
64053;BME280;50299;49.524;8.536;2023-02-28T10:08:30;101547.19;;;-0.03;43.32
64053;BME280;50299;49.524;8.536;2023-02-28T10:11:01;101558.06;;;0.62;41.46
64053;BME280;50299;49.524;8.536;2023-02-28T10:16:21;101552.09;;;-0.60;41.87
64053;BME280;50299;49.524;8.536;2023-02-28T10:19:02;101542.97;;;0.13;44.55
64053;BME280;50299;49.524;8.536;2023-02-28T10:21:39;101556.28;;;0.03;44.43
64053;BME280;50299;49.524;8.536;2023-02-28T10:24:23;101542.97;;;0.13;41.90
64053;BME280;50299;49.524;8.536;2023-02-28T10:26:56;101549.31;;;0.07;40.29
64053;BME280;50299;49.524;8.536;2023-02-28T10:29:27;101547.53;;;0.42;40.43
64053;BME280;50299;49.524;8.536;2023-02-28T10:31:54;101555.94;;;0.76;38.45
64053;BME280;50299;49.524;8.536;2023-02-28T10:34:20;101548.69;;;-0.07;39.59
64053;BME280;50299;49.524;8.536;2023-02-28T10:36:50;101550.22;;;-0.41;39.58
64053;BME280;50299;49.524;8.536;2023-02-28T10:39:42;101541.16;;;-0.72;41.50
64053;BME280;50299;49.524;8.536;2023-02-28T10:42:35;101534.38;;;-0.44;41.59
64053;BME280;50299;49.524;8.536;2023-02-28T10:45:13;101533.56;;;-0.82;42.69
64053;BME280;50299;49.524;8.536;2023-02-28T10:47:58;101541.00;;;-0.95;43.01
64053;BME280;50299;49.524;8.536;2023-02-28T10:50:33;101540.84;;;-1.44;42.54
64053;BME280;50299;49.524;8.536;2023-02-28T10:56:06;101540.34;;;0.06;41.39
64053;BME280;50299;49.524;8.536;2023-02-28T10:58:48;101539.25;;;-0.35;41.85
64053;BME280;50299;49.524;8.536;2023-02-28T11:01:22;101536.59;;;-1.15;40.90
64053;BME280;50299;49.524;8.536;2023-02-28T11:03:49;101539.81;;;-0.81;41.29
64053;BME280;50299;49.524;8.536;2023-02-28T11:06:22;101543.72;;;-0.40;42.39
64053;BME280;50299;49.524;8.536;2023-02-28T11:11:18;101538.31;;;0.02;40.36
64053;BME280;50299;49.524;8.536;2023-02-28T11:13:47;101525.28;;;0.34;40.74
64053;BME280;50299;49.524;8.536;2023-02-28T11:16:19;101531.44;;;0.53;38.50
64053;BME280;50299;49.524;8.536;2023-02-28T11:18:52;101526.81;;;0.30;39.93
64053;BME280;50299;49.524;8.536;2023-02-28T11:21:23;101537.22;;;-0.39;41.73
64053;BME280;50299;49.524;8.536;2023-02-28T11:23:55;101521.91;;;0.20;40.45
64053;BME280;50299;49.524;8.536;2023-02-28T11:26:45;101536.31;;;0.62;40.96
64053;BME280;50299;49.524;8.536;2023-02-28T11:29:19;101528.47;;;1.13;38.19
64053;BME280;50299;49.524;8.536;2023-02-28T11:34:32;101532.63;;;0.57;42.10
64053;BME280;50299;49.524;8.536;2023-02-28T11:37:00;101530.81;;;0.27;37.91
64053;BME280;50299;49.524;8.536;2023-02-28T11:39:27;101529.91;;;0.80;39.54
64053;BME280;50299;49.524;8.536;2023-02-28T11:42:17;101530.81;;;1.09;38.29
64053;BME280;50299;49.524;8.536;2023-02-28T11:45:07;101533.44;;;1.04;37.21
64053;BME280;50299;49.524;8.536;2023-02-28T11:47:45;101521.50;;;0.93;37.51
64053;BME280;50299;49.524;8.536;2023-02-28T11:53:24;101518.31;;;1.60;40.63
64053;BME280;50299;49.524;8.536;2023-02-28T11:56:05;101519.94;;;1.61;37.21
64053;BME280;50299;49.524;8.536;2023-02-28T12:04:49;101514.25;;;2.08;37.61
64053;BME280;50299;49.524;8.536;2023-02-28T12:07:29;101508.94;;;2.30;37.11
64053;BME280;50299;49.524;8.536;2023-02-28T12:10:06;101513.03;;;2.16;36.41
64053;BME280;50299;49.524;8.536;2023-02-28T12:16:10;101509.81;;;2.53;36.63
64053;BME280;50299;49.524;8.536;2023-02-28T12:22:04;101502.09;;;1.54;36.08
64053;BME280;50299;49.524;8.536;2023-02-28T12:24:49;101506.41;;;1.14;37.70
64053;BME280;50299;49.524;8.536;2023-02-28T12:27:22;101501.09;;;1.60;35.80
64053;BME280;50299;49.524;8.536;2023-02-28T12:30:08;101500.78;;;1.85;36.55
64053;BME280;50299;49.524;8.536;2023-02-28T12:32:43;101494.34;;;1.62;38.16
64053;BME280;50299;49.524;8.536;2023-02-28T12:35:13;101486.84;;;1.69;39.06
64053;BME280;50299;49.524;8.536;2023-02-28T12:37:47;101492.97;;;2.22;37.97
64053;BME280;50299;49.524;8.536;2023-02-28T12:40:20;101495.78;;;1.13;37.62
64053;BME280;50299;49.524;8.536;2023-02-28T12:42:51;101491.34;;;1.92;37.25
64053;BME280;50299;49.524;8.536;2023-02-28T12:45:21;101500.53;;;0.94;38.10
64053;BME280;50299;49.524;8.536;2023-02-28T12:47:59;101502.44;;;0.93;39.78
64053;BME280;50299;49.524;8.536;2023-02-28T12:50:27;101496.50;;;1.60;38.94
64053;BME280;50299;49.524;8.536;2023-02-28T12:53:03;101493.84;;;2.11;37.92
64053;BME280;50299;49.524;8.536;2023-02-28T12:55:42;101490.56;;;1.23;39.23
64053;BME280;50299;49.524;8.536;2023-02-28T13:00:58;101489.66;;;0.35;39.50
64053;BME280;50299;49.524;8.536;2023-02-28T13:09:12;101475.78;;;0.02;39.05
64053;BME280;50299;49.524;8.536;2023-02-28T13:11:44;101476.06;;;0.82;39.60
64053;BME280;50299;49.524;8.536;2023-02-28T13:16:59;101475.44;;;1.04;39.64
64053;BME280;50299;49.524;8.536;2023-02-28T13:19:29;101471.19;;;1.48;37.58
64053;BME280;50299;49.524;8.536;2023-02-28T13:21:57;101478.56;;;1.93;39.24
64053;BME280;50299;49.524;8.536;2023-02-28T13:24:45;101493.47;;;1.33;39.52
64053;BME280;50299;49.524;8.536;2023-02-28T13:29:43;101481.53;;;0.70;39.17
64053;BME280;50299;49.524;8.536;2023-02-28T13:37:36;101481.28;;;0.49;41.99
64053;BME280;50299;49.524;8.536;2023-02-28T13:42:47;101494.78;;;0.55;39.21
64053;BME280;50299;49.524;8.536;2023-02-28T13:45:24;101486.47;;;0.38;38.75
64053;BME280;50299;49.524;8.536;2023-02-28T13:47:58;101491.16;;;1.02;38.09
64053;BME280;50299;49.524;8.536;2023-02-28T13:58:53;101489.53;;;0.77;36.67
64053;BME280;50299;49.524;8.536;2023-02-28T14:01:47;101489.44;;;1.36;38.73
64053;BME280;50299;49.524;8.536;2023-02-28T14:04:48;101483.53;;;0.75;40.22
64053;BME280;50299;49.524;8.536;2023-02-28T14:07:19;101487.38;;;1.83;38.40
64053;BME280;50299;49.524;8.536;2023-02-28T14:09:58;101477.03;;;2.69;37.56
64053;BME280;50299;49.524;8.536;2023-02-28T14:18:05;101495.38;;;1.44;38.10
64053;BME280;50299;49.524;8.536;2023-02-28T14:20:39;101486.91;;;2.37;37.52
64053;BME280;50299;49.524;8.536;2023-02-28T14:23:15;101487.53;;;3.00;37.77
64053;BME280;50299;49.524;8.536;2023-02-28T14:28:41;101481.84;;;1.50;40.16
64053;BME280;50299;49.524;8.536;2023-02-28T14:31:25;101486.50;;;2.11;34.69
64053;BME280;50299;49.524;8.536;2023-02-28T14:36:45;101493.41;;;3.08;34.34
64053;BME280;50299;49.524;8.536;2023-02-28T14:39:14;101495.09;;;2.54;37.41
64053;BME280;50299;49.524;8.536;2023-02-28T14:41:43;101486.06;;;3.09;33.77
64053;BME280;50299;49.524;8.536;2023-02-28T14:44:19;101484.81;;;3.38;35.77
64053;BME280;50299;49.524;8.536;2023-02-28T14:46:49;101481.97;;;3.55;33.01
64053;BME280;50299;49.524;8.536;2023-02-28T14:52:02;101482.00;;;3.82;34.07
64053;BME280;50299;49.524;8.536;2023-02-28T14:54:29;101475.97;;;3.31;34.00
64053;BME280;50299;49.524;8.536;2023-02-28T14:56:56;101488.13;;;3.02;35.10